createdAt,value
2023-02-23T00:02:21.714Z,99965.00
2023-02-23T00:04:51.515Z,99962.41
2023-02-23T00:07:22.454Z,99949.38
2023-02-23T00:09:52.996Z,99957.75
2023-02-23T00:12:21.443Z,99961.44
2023-02-23T00:14:54.603Z,99964.16
2023-02-23T00:17:27.529Z,99966.63
2023-02-23T00:19:57.486Z,99960.25
2023-02-23T00:22:30.795Z,99962.63
2023-02-23T00:25:03.286Z,99931.31
2023-02-23T00:27:31.730Z,99956.66
2023-02-23T00:30:00.855Z,99944.31
2023-02-23T00:32:29.887Z,99950.53
2023-02-23T00:34:58.717Z,99965.34
2023-02-23T00:37:35.756Z,99954.25
2023-02-23T00:40:05.767Z,99958.63
2023-02-23T00:42:36.531Z,99960.25
2023-02-23T00:45:11.147Z,99950.66
2023-02-23T00:47:40.003Z,99957.44
2023-02-23T00:50:13.920Z,99958.97
2023-02-23T00:52:43.865Z,99965.16
2023-02-23T00:55:15.582Z,99964.63
2023-02-23T00:57:45.928Z,99963.00
2023-02-23T01:00:20.101Z,99956.47
2023-02-23T01:02:48.939Z,99956.25
2023-02-23T01:05:17.746Z,99963.19
2023-02-23T01:07:51.752Z,99970.25
2023-02-23T01:10:23.730Z,99951.59
2023-02-23T01:12:57.621Z,99964.63
2023-02-23T01:15:28.658Z,99960.25
2023-02-23T01:17:57.202Z,99946.88
2023-02-23T01:20:27.468Z,99960.56
2023-02-23T01:22:58.375Z,99962.84
2023-02-23T01:25:28.680Z,99948.94
2023-02-23T01:28:01.983Z,99956.03
2023-02-23T01:30:31.948Z,99951.66
2023-02-23T01:33:00.974Z,99947.53
2023-02-23T01:35:29.025Z,99957.38
2023-02-23T01:38:00.069Z,99956.69
2023-02-23T01:40:30.781Z,99961.91
2023-02-23T01:43:12.020Z,99956.19
2023-02-23T01:45:42.657Z,99950.88
2023-02-23T01:48:15.595Z,99950.50
2023-02-23T01:50:49.482Z,99955.69
2023-02-23T01:53:22.984Z,99954.31
2023-02-23T01:55:55.979Z,99961.81
2023-02-23T01:58:26.521Z,99955.63
2023-02-23T02:00:59.367Z,99961.81
2023-02-23T02:03:32.808Z,99952.16
2023-02-23T02:06:04.544Z,99957.00
2023-02-23T02:08:44.911Z,99960.25
2023-02-23T02:11:26.550Z,99956.63
2023-02-23T02:13:55.430Z,99962.13
2023-02-23T02:16:49.173Z,99963.72
2023-02-23T02:19:44.422Z,99961.09
2023-02-23T02:22:39.906Z,99958.69
2023-02-23T02:25:33.939Z,99957.38
2023-02-23T02:28:36.308Z,99954.00
2023-02-23T02:31:57.136Z,99948.72
2023-02-23T02:35:07.790Z,99935.75
2023-02-23T02:37:49.026Z,99956.22
2023-02-23T02:40:27.082Z,99947.66
2023-02-23T02:43:09.788Z,99933.22
2023-02-23T02:45:44.618Z,99949.63
2023-02-23T02:48:22.424Z,99951.72
2023-02-23T02:51:01.063Z,99939.00
2023-02-23T02:53:41.290Z,99944.13
2023-02-23T02:56:11.148Z,99929.91
2023-02-23T02:58:43.941Z,99944.59
2023-02-23T03:01:33.767Z,99936.72
2023-02-23T03:04:38.881Z,99933.34
2023-02-23T03:07:35.079Z,99935.66
2023-02-23T03:10:34.186Z,99938.16
2023-02-23T03:13:36.125Z,99933.28
2023-02-23T03:16:34.475Z,99933.03
2023-02-23T03:19:31.937Z,99940.56
2023-02-23T03:22:26.509Z,99935.84
2023-02-23T03:25:22.481Z,99938.09
2023-02-23T03:28:14.046Z,99926.19
2023-02-23T03:31:08.557Z,99942.31
2023-02-23T03:34:05.012Z,99940.34
2023-02-23T03:36:58.059Z,99936.38
2023-02-23T03:39:51.750Z,99945.25
2023-02-23T03:42:42.733Z,99948.63
2023-02-23T03:45:40.146Z,99935.44
2023-02-23T03:48:33.436Z,99943.56
2023-02-23T03:51:24.141Z,99943.59
2023-02-23T03:54:15.829Z,99936.56
2023-02-23T03:57:05.595Z,99951.72
2023-02-23T03:59:57.541Z,99935.38
2023-02-23T04:02:46.764Z,99941.72
2023-02-23T04:05:39.500Z,99937.63
2023-02-23T04:08:30.725Z,99937.41
2023-02-23T04:11:28.549Z,99951.28
2023-02-23T04:14:07.414Z,99951.28
2023-02-23T04:16:35.062Z,99959.66
2023-02-23T04:19:05.543Z,99946.59
2023-02-23T04:21:33.370Z,99948.19
2023-02-23T04:24:04.152Z,99955.88
2023-02-23T04:26:33.985Z,99938.38
2023-02-23T04:29:02.417Z,99953.09
2023-02-23T04:31:32.156Z,99954.28
2023-02-23T04:34:02.121Z,99934.09
2023-02-23T04:36:34.596Z,99961.34
2023-02-23T04:39:05.962Z,99956.19
2023-02-23T04:41:33.959Z,99945.31
2023-02-23T04:44:06.924Z,99951.19
2023-02-23T04:46:36.190Z,99962.34
2023-02-23T04:49:07.855Z,99961.56
2023-02-23T04:51:37.447Z,99962.88
2023-02-23T04:54:07.318Z,99959.84
2023-02-23T04:56:39.466Z,99956.19
2023-02-23T04:59:10.913Z,99957.06
2023-02-23T05:01:39.743Z,99956.69
2023-02-23T05:04:07.957Z,99958.94
2023-02-23T05:06:37.642Z,99958.09
2023-02-23T05:09:07.207Z,99961.28
2023-02-23T05:11:35.589Z,99944.31
2023-02-23T05:14:07.033Z,99945.22
2023-02-23T05:16:35.928Z,99952.44
2023-02-23T05:19:04.424Z,99957.03
2023-02-23T05:21:32.794Z,99952.53
2023-02-23T05:24:02.451Z,99950.53
2023-02-23T05:26:32.671Z,99965.47
2023-02-23T05:29:03.514Z,99960.75
2023-02-23T05:31:31.845Z,99956.78
2023-02-23T05:34:00.231Z,99964.41
2023-02-23T05:36:29.649Z,99957.06
2023-02-23T05:38:58.010Z,99957.44
2023-02-23T05:41:30.315Z,99952.00
2023-02-23T05:44:02.112Z,99958.47
2023-02-23T05:46:30.761Z,99963.16
2023-02-23T05:49:00.751Z,99961.44
2023-02-23T05:51:31.991Z,99960.19
2023-02-23T05:54:00.803Z,99959.00
2023-02-23T05:56:30.370Z,99966.47
2023-02-23T05:59:04.841Z,99969.34
2023-02-23T06:01:40.245Z,99969.13
2023-02-23T06:04:10.418Z,99968.91
2023-02-23T06:06:43.029Z,99967.81
2023-02-23T06:09:11.316Z,99967.31
2023-02-23T06:11:43.330Z,99968.59
2023-02-23T06:14:17.483Z,99973.72
2023-02-23T06:16:45.481Z,99971.78
2023-02-23T06:19:16.825Z,99968.44
2023-02-23T06:21:48.866Z,99970.59
2023-02-23T06:24:19.205Z,99969.97
2023-02-23T06:26:51.412Z,99974.41
2023-02-23T06:29:21.617Z,99976.53
2023-02-23T06:31:52.526Z,99982.31
2023-02-23T06:34:21.303Z,99983.53
2023-02-23T06:36:51.391Z,99977.19
2023-02-23T06:39:20.176Z,99982.19
2023-02-23T06:41:51.480Z,99985.47
2023-02-23T06:44:20.896Z,99989.19
2023-02-23T06:46:49.337Z,99994.22
2023-02-23T06:49:18.962Z,99989.09
2023-02-23T06:51:47.854Z,99992.34
2023-02-23T06:54:21.725Z,99982.41
2023-02-23T06:56:58.302Z,99997.34
2023-02-23T06:59:28.378Z,99991.16
2023-02-23T07:01:57.445Z,99992.94
2023-02-23T07:04:25.745Z,99997.09
2023-02-23T07:06:54.668Z,100005.38
2023-02-23T07:09:25.589Z,100011.41
2023-02-23T07:11:58.424Z,100002.94
2023-02-23T07:14:29.192Z,99997.53
2023-02-23T07:16:59.697Z,100008.00
2023-02-23T07:19:28.784Z,99998.22
2023-02-23T07:21:59.369Z,100017.66
2023-02-23T07:24:33.582Z,100008.59
2023-02-23T07:27:10.063Z,100019.41
2023-02-23T07:29:38.868Z,100015.09
2023-02-23T07:32:09.616Z,100017.91
2023-02-23T07:34:38.263Z,100008.97
2023-02-23T07:37:07.240Z,100020.72
2023-02-23T07:39:37.802Z,100013.81
2023-02-23T07:42:09.478Z,100018.94
2023-02-23T07:44:46.907Z,100020.66
2023-02-23T07:47:20.352Z,100019.44
2023-02-23T07:49:48.411Z,100027.16
2023-02-23T07:52:19.278Z,100016.84
2023-02-23T07:54:49.584Z,100019.84
2023-02-23T07:57:21.617Z,100019.50
2023-02-23T07:59:52.066Z,100017.88
2023-02-23T08:02:20.025Z,100025.00
2023-02-23T08:04:49.437Z,100024.63
2023-02-23T08:07:19.093Z,100010.81
2023-02-23T08:09:47.700Z,100020.84
2023-02-23T08:12:16.383Z,100026.25
2023-02-23T08:14:46.839Z,100025.25
2023-02-23T08:17:18.047Z,100029.81
2023-02-23T08:19:49.371Z,100028.63
2023-02-23T08:22:19.398Z,100034.97
2023-02-23T08:24:51.133Z,100034.06
2023-02-23T08:27:22.994Z,100023.06
2023-02-23T08:29:53.085Z,100033.91
2023-02-23T08:32:21.284Z,100027.31
2023-02-23T08:34:54.165Z,100041.34
2023-02-23T08:37:25.719Z,100039.66
2023-02-23T08:39:54.049Z,100027.81
2023-02-23T08:42:24.860Z,100039.44
2023-02-23T08:44:54.574Z,100045.41
2023-02-23T08:47:24.266Z,100029.69
2023-02-23T08:49:57.132Z,100040.56
2023-02-23T08:52:25.437Z,100050.31
2023-02-23T08:54:54.067Z,100043.72
2023-02-23T08:57:22.259Z,100048.84
2023-02-23T08:59:51.871Z,100043.09
2023-02-23T09:02:25.211Z,100034.63
2023-02-23T09:04:54.071Z,100046.16
2023-02-23T09:07:25.290Z,100042.28
2023-02-23T09:09:56.896Z,100045.75
2023-02-23T09:12:26.376Z,100052.31
2023-02-23T09:14:56.674Z,100047.03
2023-02-23T09:17:26.799Z,100053.41
2023-02-23T09:19:54.749Z,100044.00
2023-02-23T09:22:25.982Z,100048.81
2023-02-23T09:24:55.914Z,100050.69
2023-02-23T09:27:25.139Z,100044.00
2023-02-23T09:29:53.748Z,100051.31
2023-02-23T09:32:22.259Z,100049.53
2023-02-23T09:34:52.545Z,100056.03
2023-02-23T09:37:21.831Z,100026.81
2023-02-23T09:39:53.467Z,100057.59
2023-02-23T09:45:26.868Z,100057.59
2023-02-23T09:48:11.057Z,100073.44
2023-02-23T09:50:47.634Z,100073.91
2023-02-23T09:53:29.497Z,100059.34
2023-02-23T09:56:02.921Z,100049.78
2023-02-23T09:58:36.738Z,100069.31
2023-02-23T10:01:42.677Z,100069.75
2023-02-23T10:04:23.916Z,100049.09
2023-02-23T10:07:04.178Z,100063.97
2023-02-23T10:09:54.795Z,100060.94
2023-02-23T10:12:32.252Z,100048.56
2023-02-23T10:15:11.265Z,100061.06
2023-02-23T10:17:50.188Z,100058.56
2023-02-23T10:20:31.670Z,100054.31
2023-02-23T10:23:06.774Z,100064.25
2023-02-23T10:25:42.056Z,100067.03
2023-02-23T10:28:14.642Z,100061.38
2023-02-23T10:30:43.064Z,100066.94
2023-02-23T10:33:17.414Z,100058.50
2023-02-23T10:35:47.998Z,100065.41
2023-02-23T10:38:20.612Z,100060.34
2023-02-23T10:40:54.598Z,100069.88
2023-02-23T10:43:25.784Z,100066.56
2023-02-23T10:45:55.986Z,100073.19
2023-02-23T10:48:31.434Z,100049.75
2023-02-23T10:51:02.897Z,100069.72
2023-02-23T10:53:36.351Z,100073.19
2023-02-23T10:56:10.780Z,100076.59
2023-02-23T10:58:46.873Z,100074.75
2023-02-23T11:01:18.957Z,100059.19
2023-02-23T11:03:57.556Z,100080.06
2023-02-23T11:06:41.323Z,100080.22
2023-02-23T11:09:41.318Z,100073.50
2023-02-23T11:12:21.782Z,100067.66
2023-02-23T11:14:58.524Z,100063.97
2023-02-23T11:17:37.557Z,100060.28
2023-02-23T11:20:23.942Z,100059.81
2023-02-23T11:22:55.744Z,100071.63
2023-02-23T11:25:30.758Z,100051.00
2023-02-23T11:28:01.419Z,100058.56
2023-02-23T11:30:43.909Z,100056.34
2023-02-23T11:33:23.187Z,100063.06
2023-02-23T11:36:00.550Z,100066.00
2023-02-23T11:38:32.595Z,100058.31
2023-02-23T11:41:26.065Z,100054.81
2023-02-23T11:43:59.742Z,100054.81
2023-02-23T11:46:32.786Z,100044.69
2023-02-23T11:49:07.911Z,100035.16
2023-02-23T11:51:40.683Z,100036.63
2023-02-23T11:54:27.170Z,100028.38
2023-02-23T11:56:57.928Z,100032.06
2023-02-23T11:59:31.228Z,100040.91
2023-02-23T12:02:08.695Z,100035.75
2023-02-23T12:04:47.452Z,100038.38
2023-02-23T12:07:41.563Z,100031.81
2023-02-23T12:10:23.289Z,100019.31
2023-02-23T12:13:04.447Z,100016.59
2023-02-23T12:15:46.275Z,100011.94
2023-02-23T12:18:35.827Z,99997.50
2023-02-23T12:21:15.487Z,100005.16
2023-02-23T12:23:50.812Z,100001.19
2023-02-23T12:26:26.590Z,100000.59
2023-02-23T12:29:02.969Z,100002.59
2023-02-23T12:31:44.118Z,99998.72
2023-02-23T12:34:20.671Z,100002.72
2023-02-23T12:36:56.224Z,99987.16
2023-02-23T12:39:33.542Z,99999.19
2023-02-23T12:42:09.097Z,100005.00
2023-02-23T12:44:46.355Z,99997.69
2023-02-23T12:47:24.751Z,100003.09
2023-02-23T12:50:01.359Z,100003.41
2023-02-23T12:52:32.358Z,100007.66
2023-02-23T12:55:04.156Z,99997.50
2023-02-23T12:57:40.980Z,100014.88
2023-02-23T13:00:42.461Z,100007.41
2023-02-23T13:03:49.825Z,100000.59
2023-02-23T13:06:31.769Z,100006.16
2023-02-23T13:09:11.248Z,99995.81
2023-02-23T13:12:10.224Z,99999.91
2023-02-23T13:14:52.958Z,99983.47
2023-02-23T13:17:43.204Z,99998.16
2023-02-23T13:20:20.603Z,99996.50
2023-02-23T13:22:56.721Z,99997.13
2023-02-23T13:25:42.549Z,99991.97
2023-02-23T13:28:19.281Z,99999.25
2023-02-23T13:30:53.048Z,100003.88
2023-02-23T13:33:43.604Z,100007.31
2023-02-23T13:36:17.570Z,99985.22
2023-02-23T13:39:32.972Z,99992.69
2023-02-23T13:42:33.041Z,99984.91
2023-02-23T13:45:25.794Z,99993.78
2023-02-23T13:48:02.454Z,99928.94
2023-02-23T13:50:43.821Z,99984.00
2023-02-23T13:53:34.615Z,99988.34
2023-02-23T13:56:08.539Z,99992.00
2023-02-23T13:58:39.830Z,99982.63
2023-02-23T14:01:19.980Z,99997.81
2023-02-23T14:03:55.817Z,99995.19
2023-02-23T14:06:32.915Z,99992.16
2023-02-23T14:09:09.627Z,99998.78
2023-02-23T14:11:48.492Z,99996.41
2023-02-23T14:14:44.369Z,99993.94
2023-02-23T14:17:41.996Z,99996.09
2023-02-23T14:20:29.832Z,99995.16
2023-02-23T14:23:18.921Z,99994.16
2023-02-23T14:25:55.162Z,99981.81
2023-02-23T14:28:36.987Z,99988.22
2023-02-23T14:31:20.527Z,99989.56
2023-02-23T14:34:03.299Z,99976.53
2023-02-23T14:36:37.262Z,99983.25
2023-02-23T14:39:10.824Z,99985.88
2023-02-23T14:41:46.832Z,99985.16
2023-02-23T14:44:28.950Z,99981.50
2023-02-23T14:47:09.670Z,99983.63
2023-02-23T14:49:46.949Z,99979.31
2023-02-23T14:52:21.785Z,99984.94
2023-02-23T14:54:50.145Z,99993.81
2023-02-23T14:57:22.665Z,99994.41
2023-02-23T14:59:57.993Z,99985.03
2023-02-23T15:02:31.125Z,99988.81
2023-02-23T15:05:01.886Z,99997.03
2023-02-23T15:07:45.241Z,99995.25
2023-02-23T15:10:22.511Z,99992.53
2023-02-23T15:12:50.694Z,99995.00
2023-02-23T15:15:24.946Z,99996.66
2023-02-23T15:17:58.757Z,99993.31
2023-02-23T15:20:37.178Z,99998.06
2023-02-23T15:23:06.827Z,100003.69
2023-02-23T15:25:38.821Z,99997.41
2023-02-23T15:28:22.931Z,100001.44
2023-02-23T15:30:56.806Z,100003.94
2023-02-23T15:33:28.391Z,100004.38
2023-02-23T15:36:05.243Z,100002.53
2023-02-23T15:38:44.829Z,100017.22
2023-02-23T15:41:26.760Z,100006.53
2023-02-23T15:43:57.260Z,100013.06
2023-02-23T15:46:30.491Z,100010.53
2023-02-23T15:49:03.337Z,99995.81
2023-02-23T15:51:37.861Z,100012.50
2023-02-23T15:54:14.224Z,100020.66
2023-02-23T15:56:50.189Z,100009.94
2023-02-23T15:59:24.606Z,100012.41
2023-02-23T16:01:55.770Z,100011.31
2023-02-23T16:04:30.559Z,100020.34
2023-02-23T16:07:19.545Z,100010.00
2023-02-23T16:09:57.705Z,100005.84
2023-02-23T16:12:32.053Z,100010.00
2023-02-23T16:15:03.407Z,100029.69
2023-02-23T16:17:42.603Z,100024.59
2023-02-23T16:20:17.492Z,100015.53
2023-02-23T16:22:53.658Z,100020.34
2023-02-23T16:25:28.416Z,100015.97
2023-02-23T16:28:02.929Z,100018.09
2023-02-23T16:30:42.892Z,100021.50
2023-02-23T16:33:19.838Z,100017.88
2023-02-23T16:35:50.637Z,100021.69
2023-02-23T16:38:31.619Z,100024.88
2023-02-23T16:41:01.647Z,100023.56
2023-02-23T16:43:31.685Z,100027.53
2023-02-23T16:46:00.141Z,100032.22
2023-02-23T16:48:30.397Z,100031.56
2023-02-23T16:50:59.142Z,100027.25
2023-02-23T16:53:31.456Z,100029.75
2023-02-23T16:56:06.936Z,100031.66
2023-02-23T16:58:36.947Z,100042.09
2023-02-23T17:01:06.964Z,100036.03
2023-02-23T17:03:43.801Z,100042.16
2023-02-23T17:06:15.807Z,100038.03
2023-02-23T17:08:56.151Z,100043.72
2023-02-23T17:11:26.253Z,100045.00
2023-02-23T17:14:03.214Z,100041.81
2023-02-23T17:16:31.242Z,100048.56
2023-02-23T17:19:01.873Z,100044.09
2023-02-23T17:21:31.714Z,100045.13
2023-02-23T17:24:03.631Z,100053.81
2023-02-23T17:26:36.675Z,100054.03
2023-02-23T17:29:07.763Z,100053.91
2023-02-23T17:31:40.468Z,100028.50
2023-02-23T17:34:11.481Z,100030.63
2023-02-23T17:36:40.177Z,100057.47
2023-02-23T17:39:10.406Z,100043.72
2023-02-23T17:41:40.190Z,100060.53
2023-02-23T17:44:08.246Z,100061.25
2023-02-23T17:46:37.146Z,100053.91
2023-02-23T17:49:05.743Z,100060.66
2023-02-23T17:51:36.491Z,100064.69
2023-02-23T17:54:05.037Z,100063.72
2023-02-23T17:56:36.713Z,100067.97
2023-02-23T17:59:05.615Z,100063.38
2023-02-23T18:01:34.532Z,100050.00
2023-02-23T18:04:02.640Z,100057.47
2023-02-23T18:06:30.575Z,100068.94
2023-02-23T18:09:04.795Z,100075.91
2023-02-23T18:11:38.295Z,100061.47
2023-02-23T18:14:09.577Z,100061.13
2023-02-23T18:16:38.508Z,100046.09
2023-02-23T18:19:06.521Z,100067.69
2023-02-23T18:21:40.667Z,100065.03
2023-02-23T18:24:16.398Z,100053.53
2023-02-23T18:26:47.564Z,100066.22
2023-02-23T18:29:23.017Z,100058.88
2023-02-23T18:31:52.774Z,100058.38
2023-02-23T18:34:21.315Z,100054.97
2023-02-23T18:36:53.068Z,100051.53
2023-02-23T18:39:21.669Z,100042.50
2023-02-23T18:41:51.472Z,100052.13
2023-02-23T18:44:23.968Z,100048.19
2023-02-23T18:46:52.901Z,100017.44
2023-02-23T18:49:25.140Z,100042.31
2023-02-23T18:51:53.776Z,100042.16
2023-02-23T18:54:22.532Z,100024.44
2023-02-23T18:56:55.897Z,100034.50
2023-02-23T18:59:23.759Z,100020.00
2023-02-23T19:01:53.701Z,100045.06
2023-02-23T19:04:29.401Z,100047.00
2023-02-23T19:06:58.886Z,100010.91
2023-02-23T19:09:29.201Z,100037.41
2023-02-23T19:11:59.957Z,100045.28
2023-02-23T19:14:47.865Z,100033.00
2023-02-23T19:17:16.431Z,100016.22
2023-02-23T19:19:46.679Z,100011.38
2023-02-23T19:22:15.370Z,100011.84
2023-02-23T19:24:46.936Z,100034.56
2023-02-23T19:27:18.401Z,100032.97
2023-02-23T19:29:48.018Z,100038.06
2023-02-23T19:32:20.324Z,100033.63
2023-02-23T19:34:50.508Z,100044.97
2023-02-23T19:37:19.904Z,100044.75
2023-02-23T19:39:49.003Z,100039.44
2023-02-23T19:42:21.898Z,100038.88
2023-02-23T19:45:00.734Z,100040.25
2023-02-23T19:47:29.683Z,100039.38
2023-02-23T19:49:58.287Z,100034.31
2023-02-23T19:52:28.802Z,100035.50
2023-02-23T19:54:56.863Z,100045.28
2023-02-23T19:57:31.384Z,100049.28
2023-02-23T20:00:00.119Z,100038.97
2023-02-23T20:02:28.722Z,100048.56
2023-02-23T20:05:01.734Z,100056.84
2023-02-23T20:07:33.146Z,100054.84
2023-02-23T20:10:05.441Z,100057.56
2023-02-23T20:12:40.692Z,100053.28
2023-02-23T20:15:10.785Z,100021.25
2023-02-23T20:17:40.212Z,100059.25
2023-02-23T20:20:11.995Z,100066.84
2023-02-23T20:22:41.255Z,100075.41
2023-02-23T20:25:16.927Z,100070.41
2023-02-23T20:27:49.879Z,100071.78
2023-02-23T20:30:18.826Z,100065.69
2023-02-23T20:32:50.291Z,100064.91
2023-02-23T20:35:21.863Z,100072.44
2023-02-23T20:37:49.818Z,100071.50
2023-02-23T20:40:20.089Z,100075.31
2023-02-23T20:42:52.838Z,100072.47
2023-02-23T20:45:24.327Z,100072.09
2023-02-23T20:47:54.138Z,100075.28
2023-02-23T20:50:32.982Z,100071.78
2023-02-23T20:53:02.705Z,100068.09
2023-02-23T20:55:33.610Z,100075.53
2023-02-23T20:58:05.879Z,100071.41
2023-02-23T21:00:34.331Z,100071.84
2023-02-23T21:03:03.824Z,100072.78
2023-02-23T21:05:34.614Z,100073.88
2023-02-23T21:08:09.988Z,100073.50
2023-02-23T21:10:40.513Z,100075.53
2023-02-23T21:13:14.583Z,100073.94
2023-02-23T21:15:46.392Z,100069.19
2023-02-23T21:18:14.670Z,100076.13
2023-02-23T21:20:46.154Z,100070.97
2023-02-23T21:23:14.258Z,100069.47
2023-02-23T21:25:45.719Z,100073.75
2023-02-23T21:28:16.822Z,100066.84
2023-02-23T21:30:47.248Z,100072.91
2023-02-23T21:33:17.992Z,100046.53
2023-02-23T21:35:46.671Z,100049.78
2023-02-23T21:38:15.516Z,100064.03
2023-02-23T21:40:43.865Z,100059.66
2023-02-23T21:43:13.810Z,100063.28
2023-02-23T21:45:48.791Z,100070.66
2023-02-23T21:48:20.165Z,100066.53
2023-02-23T21:50:49.557Z,100066.25
2023-02-23T21:53:21.321Z,100066.69
2023-02-23T21:55:53.790Z,100066.38
2023-02-23T21:58:21.714Z,100069.53
2023-02-23T22:00:50.945Z,100058.59
2023-02-23T22:03:20.887Z,100062.44
2023-02-23T22:05:51.530Z,100054.34
2023-02-23T22:08:22.773Z,100049.72
2023-02-23T22:10:52.672Z,100049.72
2023-02-23T22:13:20.979Z,100049.09
2023-02-23T22:15:51.531Z,100049.09
2023-02-23T22:18:25.258Z,100045.25
2023-02-23T22:20:58.740Z,100049.41
2023-02-23T22:23:28.616Z,100057.25
2023-02-23T22:26:04.139Z,100045.78
2023-02-23T22:28:32.954Z,100049.34
2023-02-23T22:31:11.015Z,100057.88
2023-02-23T22:33:43.495Z,100059.31
2023-02-23T22:36:18.100Z,100062.69
2023-02-23T22:38:48.027Z,100058.53
2023-02-23T22:41:17.814Z,100063.06
2023-02-23T22:43:49.945Z,100062.28
2023-02-23T22:46:19.448Z,100065.84
2023-02-23T22:48:47.553Z,100063.44
2023-02-23T22:51:17.939Z,100063.66
2023-02-23T22:53:46.169Z,100057.75
2023-02-23T22:56:14.018Z,100042.06
2023-02-23T22:58:43.138Z,100049.56
2023-02-23T23:01:12.531Z,100051.50
2023-02-23T23:03:45.670Z,100050.50
2023-02-23T23:06:21.936Z,100045.31
2023-02-23T23:08:56.252Z,100044.94
2023-02-23T23:11:30.123Z,100037.19
2023-02-23T23:14:04.039Z,100044.06
2023-02-23T23:16:33.907Z,100042.78
2023-02-23T23:19:12.652Z,100044.09
2023-02-23T23:21:42.219Z,100042.22
2023-02-23T23:24:13.188Z,100035.34
2023-02-23T23:26:43.023Z,100048.06
2023-02-23T23:29:14.557Z,100042.75
2023-02-23T23:31:47.152Z,100042.97
2023-02-23T23:34:22.191Z,100032.94
2023-02-23T23:36:53.147Z,100028.06
2023-02-23T23:39:26.330Z,100029.81
2023-02-23T23:41:56.744Z,100034.59
2023-02-23T23:44:29.827Z,100033.34
2023-02-23T23:46:59.888Z,100026.06
2023-02-23T23:49:30.563Z,100020.84
2023-02-23T23:52:00.310Z,100018.63
2023-02-23T23:54:31.844Z,100023.41
2023-02-23T23:57:01.922Z,100014.56
2023-02-23T23:59:31.840Z,100009.63
